sensor_id;sensor_type;location;lat;lon;timestamp;P1;durP1;ratioP1;P2;durP2;ratioP2
32523;SDS011;18965;52.242;20.886;2023-04-03T07:44:16;606.13;;;385.95;;
32523;SDS011;18965;52.242;20.886;2023-04-03T07:46:43;695.58;;;245.40;;
32523;SDS011;18965;52.242;20.886;2023-04-03T07:49:09;32.20;;;5.05;;
32523;SDS011;18965;52.242;20.886;2023-04-03T07:51:36;240.20;;;76.47;;
32523;SDS011;18965;52.242;20.886;2023-04-03T07:54:02;34.85;;;13.73;;
32523;SDS011;18965;52.242;20.886;2023-04-03T07:56:27;52.33;;;8.85;;
32523;SDS011;18965;52.242;20.886;2023-04-03T07:58:53;14.63;;;3.50;;
32523;SDS011;18965;52.242;20.886;2023-04-03T08:01:19;23.55;;;4.97;;
32523;SDS011;18965;52.242;20.886;2023-04-03T08:03:45;39.47;;;6.07;;
32523;SDS011;18965;52.242;20.886;2023-04-03T08:06:11;31.45;;;5.07;;
32523;SDS011;18965;52.242;20.886;2023-04-03T08:08:38;19.45;;;4.47;;
32523;SDS011;18965;52.242;20.886;2023-04-03T08:11:04;29.95;;;4.80;;
32523;SDS011;18965;52.242;20.886;2023-04-03T08:13:31;30.27;;;4.90;;
32523;SDS011;18965;52.242;20.886;2023-04-03T08:16:06;35.53;;;4.63;;
32523;SDS011;18965;52.242;20.886;2023-04-03T08:18:37;29.38;;;4.25;;
32523;SDS011;18965;52.242;20.886;2023-04-03T08:21:08;23.17;;;4.07;;
32523;SDS011;18965;52.242;20.886;2023-04-03T08:23:35;39.85;;;6.45;;
32523;SDS011;18965;52.242;20.886;2023-04-03T08:26:10;16.13;;;3.22;;
32523;SDS011;18965;52.242;20.886;2023-04-03T08:28:38;23.95;;;4.05;;
32523;SDS011;18965;52.242;20.886;2023-04-03T08:31:06;22.08;;;4.03;;
32523;SDS011;18965;52.242;20.886;2023-04-03T08:33:36;24.90;;;4.45;;
32523;SDS011;18965;52.242;20.886;2023-04-03T08:36:05;20.50;;;4.32;;
32523;SDS011;18965;52.242;20.886;2023-04-03T08:38:35;42.75;;;5.60;;
32523;SDS011;18965;52.242;20.886;2023-04-03T08:41:16;162.32;;;18.00;;
32523;SDS011;18965;52.242;20.886;2023-04-03T08:49:59;36.80;;;5.13;;
32523;SDS011;18965;52.242;20.886;2023-04-03T08:55:52;20.33;;;3.17;;
32523;SDS011;18965;52.242;20.886;2023-04-03T08:58:20;11.65;;;2.67;;
32523;SDS011;18965;52.242;20.886;2023-04-03T09:04:00;30.58;;;4.28;;
32523;SDS011;18965;52.242;20.886;2023-04-03T09:09:41;39.33;;;4.88;;
32523;SDS011;18965;52.242;20.886;2023-04-03T09:12:39;18.80;;;3.78;;
32523;SDS011;18965;52.242;20.886;2023-04-03T09:15:26;29.60;;;4.90;;
32523;SDS011;18965;52.242;20.886;2023-04-03T09:18:12;24.92;;;4.07;;
32523;SDS011;18965;52.242;20.886;2023-04-03T09:21:24;20.73;;;3.20;;
32523;SDS011;18965;52.242;20.886;2023-04-03T09:24:15;24.02;;;3.60;;
32523;SDS011;18965;52.242;20.886;2023-04-03T09:26:44;24.58;;;3.90;;
32523;SDS011;18965;52.242;20.886;2023-04-03T09:29:33;29.70;;;4.00;;
32523;SDS011;18965;52.242;20.886;2023-04-03T09:32:12;10.57;;;2.30;;
32523;SDS011;18965;52.242;20.886;2023-04-03T09:34:54;26.00;;;3.78;;
32523;SDS011;18965;52.242;20.886;2023-04-03T09:37:43;34.78;;;4.57;;
32523;SDS011;18965;52.242;20.886;2023-04-03T09:40:50;17.52;;;2.83;;
32523;SDS011;18965;52.242;20.886;2023-04-03T09:46:56;44.25;;;5.72;;
32523;SDS011;18965;52.242;20.886;2023-04-03T09:52:50;12.32;;;2.67;;
32523;SDS011;18965;52.242;20.886;2023-04-03T09:55:54;22.75;;;3.55;;
32523;SDS011;18965;52.242;20.886;2023-04-03T09:58:27;137.23;;;14.18;;
32523;SDS011;18965;52.242;20.886;2023-04-03T10:04:46;41.35;;;4.57;;
32523;SDS011;18965;52.242;20.886;2023-04-03T10:10:19;10.00;;;2.20;;
32523;SDS011;18965;52.242;20.886;2023-04-03T10:15:45;19.50;;;2.95;;
32523;SDS011;18965;52.242;20.886;2023-04-03T10:24:53;13.90;;;2.38;;
32523;SDS011;18965;52.242;20.886;2023-04-03T10:27:34;26.88;;;3.90;;
32523;SDS011;18965;52.242;20.886;2023-04-03T10:43:47;18.70;;;3.57;;
32523;SDS011;18965;52.242;20.886;2023-04-03T10:58:48;142.18;;;13.90;;
32523;SDS011;18965;52.242;20.886;2023-04-03T11:01:35;5.15;;;1.67;;
32523;SDS011;18965;52.242;20.886;2023-04-03T11:04:25;7.75;;;2.05;;
32523;SDS011;18965;52.242;20.886;2023-04-03T11:06:55;9.67;;;1.93;;
32523;SDS011;18965;52.242;20.886;2023-04-03T11:10:00;31.08;;;3.65;;
32523;SDS011;18965;52.242;20.886;2023-04-03T11:12:49;45.45;;;5.30;;
32523;SDS011;18965;52.242;20.886;2023-04-03T11:15:53;21.25;;;3.05;;
32523;SDS011;18965;52.242;20.886;2023-04-03T11:21:24;13.95;;;3.00;;
32523;SDS011;18965;52.242;20.886;2023-04-03T11:24:16;15.77;;;2.67;;
32523;SDS011;18965;52.242;20.886;2023-04-03T11:26:55;19.75;;;3.03;;
32523;SDS011;18965;52.242;20.886;2023-04-03T11:29:23;21.00;;;2.85;;
32523;SDS011;18965;52.242;20.886;2023-04-03T11:32:07;18.50;;;2.65;;
32523;SDS011;18965;52.242;20.886;2023-04-03T11:35:02;15.27;;;2.30;;
32523;SDS011;18965;52.242;20.886;2023-04-03T11:37:38;14.15;;;2.63;;
32523;SDS011;18965;52.242;20.886;2023-04-03T11:40:25;32.17;;;4.47;;
32523;SDS011;18965;52.242;20.886;2023-04-03T11:43:06;21.58;;;3.65;;
32523;SDS011;18965;52.242;20.886;2023-04-03T11:46:06;12.40;;;2.47;;
32523;SDS011;18965;52.242;20.886;2023-04-03T11:53:41;17.63;;;2.65;;
32523;SDS011;18965;52.242;20.886;2023-04-03T12:01:54;13.27;;;2.22;;
32523;SDS011;18965;52.242;20.886;2023-04-03T12:04:26;12.68;;;2.10;;
32523;SDS011;18965;52.242;20.886;2023-04-03T12:07:01;9.20;;;1.83;;
32523;SDS011;18965;52.242;20.886;2023-04-03T12:12:22;29.38;;;3.72;;
32523;SDS011;18965;52.242;20.886;2023-04-03T12:17:47;23.38;;;3.17;;
32523;SDS011;18965;52.242;20.886;2023-04-03T12:25:59;35.85;;;4.47;;
32523;SDS011;18965;52.242;20.886;2023-04-03T12:28:30;14.63;;;2.33;;
32523;SDS011;18965;52.242;20.886;2023-04-03T12:31:02;42.88;;;5.60;;
32523;SDS011;18965;52.242;20.886;2023-04-03T12:33:46;10.43;;;1.90;;
32523;SDS011;18965;52.242;20.886;2023-04-03T12:37:01;50.88;;;6.53;;
32523;SDS011;18965;52.242;20.886;2023-04-03T12:47:39;17.65;;;2.85;;
32523;SDS011;18965;52.242;20.886;2023-04-03T12:59:14;14.80;;;2.80;;
32523;SDS011;18965;52.242;20.886;2023-04-03T13:01:55;20.35;;;3.38;;
32523;SDS011;18965;52.242;20.886;2023-04-03T13:04:34;14.40;;;4.18;;
32523;SDS011;18965;52.242;20.886;2023-04-03T13:10:35;15.35;;;3.42;;
32523;SDS011;18965;52.242;20.886;2023-04-03T13:13:13;33.00;;;4.32;;
32523;SDS011;18965;52.242;20.886;2023-04-03T13:16:23;15.73;;;3.15;;
32523;SDS011;18965;52.242;20.886;2023-04-03T13:18:56;23.33;;;4.30;;
32523;SDS011;18965;52.242;20.886;2023-04-03T13:21:31;23.35;;;3.97;;
32523;SDS011;18965;52.242;20.886;2023-04-03T13:24:11;31.77;;;5.00;;
32523;SDS011;18965;52.242;20.886;2023-04-03T13:26:44;13.40;;;6.72;;
32523;SDS011;18965;52.242;20.886;2023-04-03T13:29:28;16.85;;;3.80;;
32523;SDS011;18965;52.242;20.886;2023-04-03T13:32:22;22.02;;;7.60;;
32523;SDS011;18965;52.242;20.886;2023-04-03T13:38:00;16.05;;;2.75;;
32523;SDS011;18965;52.242;20.886;2023-04-03T13:44:17;24.95;;;5.25;;
32523;SDS011;18965;52.242;20.886;2023-04-03T13:46:47;23.75;;;6.20;;
32523;SDS011;18965;52.242;20.886;2023-04-03T13:49:30;35.60;;;10.45;;
32523;SDS011;18965;52.242;20.886;2023-04-03T13:55:25;40.60;;;13.25;;
32523;SDS011;18965;52.242;20.886;2023-04-03T13:57:58;27.85;;;6.43;;
32523;SDS011;18965;52.242;20.886;2023-04-03T14:06:15;54.03;;;20.52;;
32523;SDS011;18965;52.242;20.886;2023-04-03T14:08:43;36.03;;;15.07;;
32523;SDS011;18965;52.242;20.886;2023-04-03T14:11:34;27.67;;;6.03;;
32523;SDS011;18965;52.242;20.886;2023-04-03T14:14:13;23.85;;;4.05;;
32523;SDS011;18965;52.242;20.886;2023-04-03T14:16:51;21.38;;;6.85;;
32523;SDS011;18965;52.242;20.886;2023-04-03T14:19:45;22.73;;;9.43;;
32523;SDS011;18965;52.242;20.886;2023-04-03T14:22:30;28.20;;;5.88;;
32523;SDS011;18965;52.242;20.886;2023-04-03T14:25:26;88.43;;;28.00;;
32523;SDS011;18965;52.242;20.886;2023-04-03T14:30:54;9.80;;;3.22;;
32523;SDS011;18965;52.242;20.886;2023-04-03T14:33:28;14.88;;;3.03;;
32523;SDS011;18965;52.242;20.886;2023-04-03T14:36:20;12.45;;;3.88;;
32523;SDS011;18965;52.242;20.886;2023-04-03T14:41:30;13.82;;;3.30;;
32523;SDS011;18965;52.242;20.886;2023-04-03T14:43:59;23.40;;;3.67;;
32523;SDS011;18965;52.242;20.886;2023-04-03T14:46:38;49.25;;;6.15;;
32523;SDS011;18965;52.242;20.886;2023-04-03T14:49:17;24.63;;;3.85;;
32523;SDS011;18965;52.242;20.886;2023-04-03T14:55:11;52.95;;;10.40;;
32523;SDS011;18965;52.242;20.886;2023-04-03T14:58:02;25.58;;;8.68;;
32523;SDS011;18965;52.242;20.886;2023-04-03T15:00:28;35.78;;;9.52;;
32523;SDS011;18965;52.242;20.886;2023-04-03T15:03:01;25.00;;;3.97;;
32523;SDS011;18965;52.242;20.886;2023-04-03T15:06:25;34.00;;;4.97;;
32523;SDS011;18965;52.242;20.886;2023-04-03T15:12:10;35.13;;;10.63;;
32523;SDS011;18965;52.242;20.886;2023-04-03T15:33:29;29.88;;;4.85;;
32523;SDS011;18965;52.242;20.886;2023-04-03T15:39:03;37.45;;;5.78;;
32523;SDS011;18965;52.242;20.886;2023-04-03T15:47:35;19.25;;;6.00;;
32523;SDS011;18965;52.242;20.886;2023-04-03T15:50:13;42.40;;;8.60;;
32523;SDS011;18965;52.242;20.886;2023-04-03T15:52:51;22.27;;;5.85;;
32523;SDS011;18965;52.242;20.886;2023-04-03T15:57:59;27.98;;;8.57;;
32523;SDS011;18965;52.242;20.886;2023-04-03T16:01:10;41.97;;;8.68;;
32523;SDS011;18965;52.242;20.886;2023-04-03T16:12:36;65.25;;;16.25;;
32523;SDS011;18965;52.242;20.886;2023-04-03T16:15:23;43.92;;;11.48;;
32523;SDS011;18965;52.242;20.886;2023-04-03T16:17:57;134.85;;;21.67;;
32523;SDS011;18965;52.242;20.886;2023-04-03T16:20:24;40.95;;;8.50;;
32523;SDS011;18965;52.242;20.886;2023-04-03T16:23:26;42.33;;;11.20;;
32523;SDS011;18965;52.242;20.886;2023-04-03T16:25:46;24.05;;;5.65;;
32523;SDS011;18965;52.242;20.886;2023-04-03T16:28:21;33.35;;;5.65;;
32523;SDS011;18965;52.242;20.886;2023-04-03T16:30:56;18.63;;;4.82;;
32523;SDS011;18965;52.242;20.886;2023-04-03T16:36:45;36.55;;;9.23;;
32523;SDS011;18965;52.242;20.886;2023-04-03T16:39:17;35.17;;;6.18;;
32523;SDS011;18965;52.242;20.886;2023-04-03T16:42:04;21.33;;;5.43;;
32523;SDS011;18965;52.242;20.886;2023-04-03T16:44:32;32.03;;;7.95;;
32523;SDS011;18965;52.242;20.886;2023-04-03T16:47:09;23.55;;;5.03;;
32523;SDS011;18965;52.242;20.886;2023-04-03T16:49:55;19.92;;;5.32;;
32523;SDS011;18965;52.242;20.886;2023-04-03T16:52:30;38.30;;;7.57;;
32523;SDS011;18965;52.242;20.886;2023-04-03T16:55:15;26.90;;;4.72;;
32523;SDS011;18965;52.242;20.886;2023-04-03T16:57:44;28.90;;;5.28;;
32523;SDS011;18965;52.242;20.886;2023-04-03T17:00:15;27.92;;;5.18;;
32523;SDS011;18965;52.242;20.886;2023-04-03T17:02:41;16.60;;;3.90;;
32523;SDS011;18965;52.242;20.886;2023-04-03T17:05:07;21.25;;;4.10;;
32523;SDS011;18965;52.242;20.886;2023-04-03T17:07:39;18.02;;;3.88;;
32523;SDS011;18965;52.242;20.886;2023-04-03T17:13:48;27.15;;;5.85;;
32523;SDS011;18965;52.242;20.886;2023-04-03T17:16:15;23.38;;;4.80;;
32523;SDS011;18965;52.242;20.886;2023-04-03T17:18:53;61.22;;;8.57;;
32523;SDS011;18965;52.242;20.886;2023-04-03T17:21:52;43.05;;;7.88;;
32523;SDS011;18965;52.242;20.886;2023-04-03T17:28:18;18.20;;;3.83;;
32523;SDS011;18965;52.242;20.886;2023-04-03T17:55:58;154.38;;;16.55;;
32523;SDS011;18965;52.242;20.886;2023-04-03T18:08:44;21.55;;;4.68;;
32523;SDS011;18965;52.242;20.886;2023-04-03T18:13:30;21.58;;;5.43;;
32523;SDS011;18965;52.242;20.886;2023-04-03T18:16:22;17.13;;;4.13;;
32523;SDS011;18965;52.242;20.886;2023-04-03T18:25:21;87.80;;;11.10;;
32523;SDS011;18965;52.242;20.886;2023-04-03T18:27:50;53.80;;;9.63;;
32523;SDS011;18965;52.242;20.886;2023-04-03T18:40:48;44.35;;;7.25;;
32523;SDS011;18965;52.242;20.886;2023-04-03T18:43:48;22.25;;;6.03;;
32523;SDS011;18965;52.242;20.886;2023-04-03T18:46:39;31.65;;;8.50;;
32523;SDS011;18965;52.242;20.886;2023-04-03T18:49:45;27.00;;;7.18;;
32523;SDS011;18965;52.242;20.886;2023-04-03T18:52:19;36.35;;;6.85;;
32523;SDS011;18965;52.242;20.886;2023-04-03T19:06:56;118.82;;;16.42;;
32523;SDS011;18965;52.242;20.886;2023-04-03T19:09:39;71.20;;;22.02;;
32523;SDS011;18965;52.242;20.886;2023-04-03T19:23:54;21.88;;;7.72;;
32523;SDS011;18965;52.242;20.886;2023-04-03T19:26:23;27.48;;;6.57;;
32523;SDS011;18965;52.242;20.886;2023-04-03T19:28:50;34.70;;;7.03;;
32523;SDS011;18965;52.242;20.886;2023-04-03T19:31:17;16.75;;;5.00;;
32523;SDS011;18965;52.242;20.886;2023-04-03T19:33:47;19.00;;;5.60;;
32523;SDS011;18965;52.242;20.886;2023-04-03T19:36:14;14.30;;;5.30;;
32523;SDS011;18965;52.242;20.886;2023-04-03T19:38:41;14.90;;;5.43;;
32523;SDS011;18965;52.242;20.886;2023-04-03T19:44:15;36.45;;;7.78;;
32523;SDS011;18965;52.242;20.886;2023-04-03T19:46:40;12.85;;;5.43;;
32523;SDS011;18965;52.242;20.886;2023-04-03T19:49:06;32.47;;;7.60;;
32523;SDS011;18965;52.242;20.886;2023-04-03T19:51:32;16.40;;;6.18;;
32523;SDS011;18965;52.242;20.886;2023-04-03T19:53:57;46.03;;;8.27;;
32523;SDS011;18965;52.242;20.886;2023-04-03T19:56:23;12.13;;;6.63;;
32523;SDS011;18965;52.242;20.886;2023-04-03T19:58:50;17.00;;;5.85;;
32523;SDS011;18965;52.242;20.886;2023-04-03T20:01:21;19.55;;;6.70;;
32523;SDS011;18965;52.242;20.886;2023-04-03T20:03:48;27.55;;;7.72;;
32523;SDS011;18965;52.242;20.886;2023-04-03T20:06:14;25.38;;;6.65;;
32523;SDS011;18965;52.242;20.886;2023-04-03T20:08:41;21.35;;;5.78;;
32523;SDS011;18965;52.242;20.886;2023-04-03T20:11:07;28.00;;;6.55;;
32523;SDS011;18965;52.242;20.886;2023-04-03T20:13:33;36.72;;;6.55;;
32523;SDS011;18965;52.242;20.886;2023-04-03T20:16:02;16.88;;;5.65;;
32523;SDS011;18965;52.242;20.886;2023-04-03T20:18:29;29.38;;;7.05;;
32523;SDS011;18965;52.242;20.886;2023-04-03T20:20:57;23.92;;;6.60;;
32523;SDS011;18965;52.242;20.886;2023-04-03T20:23:25;29.58;;;5.72;;
32523;SDS011;18965;52.242;20.886;2023-04-03T20:25:52;10.27;;;4.78;;
32523;SDS011;18965;52.242;20.886;2023-04-03T20:28:19;28.90;;;6.72;;
32523;SDS011;18965;52.242;20.886;2023-04-03T20:30:47;22.05;;;5.38;;
32523;SDS011;18965;52.242;20.886;2023-04-03T20:33:15;37.95;;;7.78;;
32523;SDS011;18965;52.242;20.886;2023-04-03T20:35:42;24.80;;;6.38;;
32523;SDS011;18965;52.242;20.886;2023-04-03T20:38:08;11.98;;;4.95;;
32523;SDS011;18965;52.242;20.886;2023-04-03T20:40:35;30.15;;;6.25;;
32523;SDS011;18965;52.242;20.886;2023-04-03T20:43:01;17.50;;;6.05;;
32523;SDS011;18965;52.242;20.886;2023-04-03T20:45:27;26.80;;;6.15;;
32523;SDS011;18965;52.242;20.886;2023-04-03T20:47:56;35.45;;;6.72;;
32523;SDS011;18965;52.242;20.886;2023-04-03T20:50:22;14.38;;;4.57;;
32523;SDS011;18965;52.242;20.886;2023-04-03T20:52:49;12.45;;;4.00;;
32523;SDS011;18965;52.242;20.886;2023-04-03T20:55:15;8.38;;;4.28;;
32523;SDS011;18965;52.242;20.886;2023-04-03T20:57:41;11.52;;;4.43;;
32523;SDS011;18965;52.242;20.886;2023-04-03T21:00:08;31.10;;;6.75;;
32523;SDS011;18965;52.242;20.886;2023-04-03T21:02:36;66.82;;;9.25;;
32523;SDS011;18965;52.242;20.886;2023-04-03T21:05:02;15.02;;;5.07;;
32523;SDS011;18965;52.242;20.886;2023-04-03T21:19:13;45.80;;;7.70;;
32523;SDS011;18965;52.242;20.886;2023-04-03T21:21:40;8.18;;;4.07;;
32523;SDS011;18965;52.242;20.886;2023-04-03T21:24:10;12.27;;;4.90;;
32523;SDS011;18965;52.242;20.886;2023-04-03T21:26:36;49.67;;;7.97;;
32523;SDS011;18965;52.242;20.886;2023-04-03T21:29:04;16.00;;;4.78;;
32523;SDS011;18965;52.242;20.886;2023-04-03T21:34:18;35.28;;;6.30;;
32523;SDS011;18965;52.242;20.886;2023-04-03T21:36:45;19.83;;;5.32;;
32523;SDS011;18965;52.242;20.886;2023-04-03T21:39:13;32.67;;;6.53;;
32523;SDS011;18965;52.242;20.886;2023-04-03T21:41:39;29.63;;;5.93;;
32523;SDS011;18965;52.242;20.886;2023-04-03T21:44:06;16.60;;;4.63;;
32523;SDS011;18965;52.242;20.886;2023-04-03T21:46:31;9.30;;;4.25;;
32523;SDS011;18965;52.242;20.886;2023-04-03T21:48:57;13.73;;;4.18;;
32523;SDS011;18965;52.242;20.886;2023-04-03T21:51:23;27.58;;;5.63;;
32523;SDS011;18965;52.242;20.886;2023-04-03T21:53:51;30.38;;;5.97;;
32523;SDS011;18965;52.242;20.886;2023-04-03T21:56:20;18.63;;;5.25;;
32523;SDS011;18965;52.242;20.886;2023-04-03T21:58:46;32.58;;;6.50;;
32523;SDS011;18965;52.242;20.886;2023-04-03T22:01:13;53.78;;;8.43;;
32523;SDS011;18965;52.242;20.886;2023-04-03T22:03:40;8.73;;;3.88;;
32523;SDS011;18965;52.242;20.886;2023-04-03T22:06:10;13.48;;;4.43;;
32523;SDS011;18965;52.242;20.886;2023-04-03T22:08:36;34.65;;;6.00;;
32523;SDS011;18965;52.242;20.886;2023-04-03T22:11:03;20.90;;;5.13;;
32523;SDS011;18965;52.242;20.886;2023-04-03T22:13:37;22.50;;;5.15;;
32523;SDS011;18965;52.242;20.886;2023-04-03T22:16:03;12.68;;;4.13;;
32523;SDS011;18965;52.242;20.886;2023-04-03T22:18:30;27.63;;;5.85;;
32523;SDS011;18965;52.242;20.886;2023-04-03T22:20:56;34.38;;;6.10;;
32523;SDS011;18965;52.242;20.886;2023-04-03T22:23:22;11.90;;;4.10;;
32523;SDS011;18965;52.242;20.886;2023-04-03T22:26:04;58.47;;;7.80;;
32523;SDS011;18965;52.242;20.886;2023-04-03T22:28:35;17.67;;;4.93;;
32523;SDS011;18965;52.242;20.886;2023-04-03T22:31:03;52.10;;;7.32;;
32523;SDS011;18965;52.242;20.886;2023-04-03T22:33:33;13.02;;;4.18;;
32523;SDS011;18965;52.242;20.886;2023-04-03T22:36:02;20.00;;;4.65;;
32523;SDS011;18965;52.242;20.886;2023-04-03T22:38:29;70.90;;;8.55;;
32523;SDS011;18965;52.242;20.886;2023-04-03T22:40:58;50.05;;;7.10;;
32523;SDS011;18965;52.242;20.886;2023-04-03T22:43:26;10.77;;;3.17;;
32523;SDS011;18965;52.242;20.886;2023-04-03T22:45:54;54.25;;;7.88;;
32523;SDS011;18965;52.242;20.886;2023-04-03T22:48:20;24.95;;;5.18;;
32523;SDS011;18965;52.242;20.886;2023-04-03T22:50:47;15.32;;;4.20;;
32523;SDS011;18965;52.242;20.886;2023-04-03T22:53:13;48.63;;;7.18;;
32523;SDS011;18965;52.242;20.886;2023-04-03T22:55:39;15.95;;;4.20;;
32523;SDS011;18965;52.242;20.886;2023-04-03T22:58:05;11.20;;;3.58;;
32523;SDS011;18965;52.242;20.886;2023-04-03T23:00:31;30.65;;;5.95;;
32523;SDS011;18965;52.242;20.886;2023-04-03T23:02:57;19.08;;;3.95;;
32523;SDS011;18965;52.242;20.886;2023-04-03T23:05:23;12.95;;;3.92;;
32523;SDS011;18965;52.242;20.886;2023-04-03T23:07:49;38.15;;;6.25;;
32523;SDS011;18965;52.242;20.886;2023-04-03T23:10:15;24.50;;;4.75;;
32523;SDS011;18965;52.242;20.886;2023-04-03T23:12:42;25.33;;;4.90;;
32523;SDS011;18965;52.242;20.886;2023-04-03T23:15:26;47.50;;;7.22;;
32523;SDS011;18965;52.242;20.886;2023-04-03T23:17:52;47.67;;;6.97;;
32523;SDS011;18965;52.242;20.886;2023-04-03T23:20:17;13.00;;;3.67;;
32523;SDS011;18965;52.242;20.886;2023-04-03T23:22:43;45.33;;;6.70;;
32523;SDS011;18965;52.242;20.886;2023-04-03T23:25:09;57.72;;;7.93;;
32523;SDS011;18965;52.242;20.886;2023-04-03T23:27:35;42.80;;;6.03;;
32523;SDS011;18965;52.242;20.886;2023-04-03T23:30:02;50.33;;;7.22;;
32523;SDS011;18965;52.242;20.886;2023-04-03T23:32:28;14.25;;;4.15;;
32523;SDS011;18965;52.242;20.886;2023-04-03T23:34:54;9.32;;;3.33;;
32523;SDS011;18965;52.242;20.886;2023-04-03T23:37:20;18.27;;;4.22;;
32523;SDS011;18965;52.242;20.886;2023-04-03T23:39:46;32.88;;;5.20;;
32523;SDS011;18965;52.242;20.886;2023-04-03T23:42:12;14.90;;;3.55;;
32523;SDS011;18965;52.242;20.886;2023-04-03T23:44:37;8.40;;;3.40;;
32523;SDS011;18965;52.242;20.886;2023-04-03T23:47:03;34.85;;;5.75;;
32523;SDS011;18965;52.242;20.886;2023-04-03T23:49:29;27.67;;;5.03;;
32523;SDS011;18965;52.242;20.886;2023-04-03T23:51:54;18.33;;;4.15;;
32523;SDS011;18965;52.242;20.886;2023-04-03T23:54:21;21.23;;;4.75;;
32523;SDS011;18965;52.242;20.886;2023-04-03T23:56:47;7.30;;;3.05;;
32523;SDS011;18965;52.242;20.886;2023-04-03T23:59:13;13.35;;;4.05;;
